Time;durP1;ratioP1;P1;durP2;ratioP2;P2;SDS_P1;SDS_P2;PMS_P1;PMS_P2;Temp;Humidity;BMP_temperature;BMP_pressure;BME280_temperature;BME280_humidity;BME280_pressure;Samples;Min_cycle;Max_cycle;Signal;HPM_P1;HPM_P2
2021/12/24 00:01:36;;;;;;;0.00;0.00;;;10.00;99.90;;;;;;5036629;28;20033;-81
2021/12/24 00:04:02;;;;;;;1.08;0.75;;;10.00;99.90;;;;;;5037417;28;20099;-81
2021/12/24 00:06:27;;;;;;;0.98;0.32;;;10.00;99.90;;;;;;5038735;28;20484;-81
2021/12/24 00:08:55;;;;;;;0.45;0.32;;;9.90;99.90;;;;;;5040494;28;20471;-81
2021/12/24 00:11:21;;;;;;;0.00;0.00;;;9.90;99.90;;;;;;5044809;28;20030;-81
2021/12/24 00:13:49;;;;;;;1.45;0.65;;;9.80;99.90;;;;;;5045703;28;20022;-81
2021/12/24 00:16:25;;;;;;;0.45;0.43;;;9.80;99.90;;;;;;5053320;28;20022;-81
2021/12/24 00:19:01;;;;;;;0.03;0.03;;;9.80;99.90;;;;;;5052990;28;20040;-81
2021/12/24 00:35:10;;;;;;;0.85;0.57;;;9.60;99.90;;;;;;5034229;28;20063;-82
2021/12/24 00:37:37;;;;;;;3.33;0.65;;;9.60;99.90;;;;;;5020572;28;20481;-81
2021/12/24 00:42:35;;;;;;;0.00;0.00;;;9.60;99.90;;;;;;5014970;28;20040;-83
2021/12/24 00:45:00;;;;;;;0.43;0.43;;;9.60;99.90;;;;;;5014616;28;20108;-83
2021/12/24 00:47:26;;;;;;;0.45;0.45;;;9.60;99.90;;;;;;5024397;28;20030;-83
2021/12/24 00:49:53;;;;;;;0.28;0.28;;;9.60;99.90;;;;;;5032333;28;20079;-81
2021/12/24 00:55:06;;;;;;;0.43;0.20;;;9.50;99.90;;;;;;5034499;28;20030;-83
2021/12/24 00:57:39;;;;;;;1.20;0.75;;;9.50;99.90;;;;;;5033945;28;20033;-84
2021/12/24 01:00:07;;;;;;;;;;;9.50;99.90;;;;;;5033149;28;20397;-84
2021/12/24 01:02:33;;;;;;;0.00;0.00;;;9.60;99.90;;;;;;5034038;28;19963;-85
2021/12/24 01:04:58;;;;;;;2.35;0.47;;;9.50;99.90;;;;;;5033833;28;20053;-84
2021/12/24 01:07:24;;;;;;;0.15;0.15;;;9.50;99.90;;;;;;5034116;28;20136;-85
2021/12/24 01:09:50;;;;;;;0.00;0.00;;;9.50;99.90;;;;;;5032295;28;20091;-86
2021/12/24 01:12:15;;;;;;;1.73;0.25;;;9.40;99.90;;;;;;5032452;28;20029;-85
2021/12/24 01:14:43;;;;;;;0.13;0.10;;;9.40;99.90;;;;;;5033439;28;20108;-85
2021/12/24 01:17:26;;;;;;;0.25;0.25;;;9.30;99.90;;;;;;5033672;28;20029;-83
2021/12/24 01:19:56;;;;;;;0.03;0.03;;;9.30;99.90;;;;;;5032250;28;20057;-87
2021/12/24 01:25:35;;;;;;;0.00;0.00;;;9.30;99.90;;;;;;5033133;28;20137;-87
2021/12/24 01:38:34;;;;;;;0.00;0.00;;;9.20;99.90;;;;;;5033169;28;20411;-83
2021/12/24 01:43:27;;;;;;;0.13;0.13;;;9.20;99.90;;;;;;5034043;28;20484;-82
2021/12/24 01:45:56;;;;;;;0.08;0.08;;;9.30;99.90;;;;;;5033281;28;20083;-82
2021/12/24 01:48:22;;;;;;;0.08;0.08;;;9.30;99.90;;;;;;5032497;28;20480;-82
2021/12/24 01:50:49;;;;;;;0.32;0.32;;;9.20;99.90;;;;;;5031305;28;20013;-88
2021/12/24 01:53:18;;;;;;;0.05;0.05;;;9.20;99.90;;;;;;5032673;28;20477;-82
2021/12/24 01:55:47;;;;;;;0.90;0.90;;;9.20;99.90;;;;;;5032696;28;20023;-82
2021/12/24 01:58:13;;;;;;;0.40;0.40;;;9.30;99.90;;;;;;5032997;28;20026;-88
2021/12/24 02:00:43;;;;;;;0.08;0.08;;;9.30;99.90;;;;;;5032926;28;20485;-88
2021/12/24 02:03:11;;;;;;;0.00;0.00;;;9.20;99.90;;;;;;5032884;28;20452;-88
2021/12/24 02:05:38;;;;;;;0.65;0.65;;;9.20;99.90;;;;;;5032656;28;20050;-89
2021/12/24 02:08:04;;;;;;;0.20;0.20;;;9.20;99.90;;;;;;5032725;28;20400;-82
2021/12/24 02:10:30;;;;;;;0.03;0.03;;;9.20;99.90;;;;;;5032816;28;20056;-83
2021/12/24 02:12:56;;;;;;;0.55;0.55;;;9.20;99.90;;;;;;5032872;28;20586;-88
2021/12/24 02:15:43;;;;;;;0.52;0.52;;;9.20;99.90;;;;;;5032629;28;20496;-88
2021/12/24 02:28:51;;;;;;;0.30;0.30;;;9.20;99.90;;;;;;5032213;28;20114;-88
2021/12/24 02:31:25;;;;;;;0.55;0.45;;;9.20;99.90;;;;;;5031843;28;20488;-86
2021/12/24 02:33:52;;;;;;;0.20;0.20;;;9.20;99.90;;;;;;5031221;28;20442;-83
2021/12/24 02:36:21;;;;;;;0.13;0.13;;;9.10;99.90;;;;;;5032116;28;20029;-83
2021/12/24 02:38:48;;;;;;;0.10;0.10;;;9.10;99.90;;;;;;5012525;28;20408;-85
2021/12/24 02:41:14;;;;;;;0.00;0.00;;;9.10;99.90;;;;;;5044564;28;20030;-86
2021/12/24 02:43:41;;;;;;;0.20;0.20;;;9.10;99.90;;;;;;5011566;28;20021;-86
2021/12/24 02:46:11;;;;;;;0.00;0.00;;;9.10;99.90;;;;;;5012785;28;20512;-82
2021/12/24 02:54:07;;;;;;;0.60;0.50;;;9.00;99.90;;;;;;5032016;28;20029;-87
2021/12/24 02:56:38;;;;;;;0.52;0.35;;;9.10;99.90;;;;;;5032250;28;20025;-87
2021/12/24 02:59:13;;;;;;;0.20;0.20;;;9.10;99.90;;;;;;5032348;28;20029;-82
2021/12/24 03:01:45;;;;;;;0.00;0.00;;;9.00;99.90;;;;;;5034490;28;20527;-83
2021/12/24 03:04:12;;;;;;;0.10;0.10;;;9.00;99.90;;;;;;5036327;28;20053;-87
2021/12/24 03:06:42;;;;;;;0.30;0.30;;;9.00;99.90;;;;;;5036032;28;20037;-86
2021/12/24 03:09:12;;;;;;;0.10;0.10;;;9.00;99.90;;;;;;5035827;28;20032;-87
2021/12/24 03:11:38;;;;;;;0.00;0.00;;;9.00;99.90;;;;;;5036731;28;20112;-88
2021/12/24 03:14:08;;;;;;;0.40;0.40;;;9.00;99.90;;;;;;5036266;28;20076;-83
2021/12/24 03:16:35;;;;;;;0.10;0.10;;;9.00;99.90;;;;;;5036164;28;20029;-88
2021/12/24 03:19:01;;;;;;;0.13;0.13;;;9.00;99.90;;;;;;5035208;28;20108;-89
2021/12/24 03:21:36;;;;;;;1.60;0.50;;;9.00;99.90;;;;;;5033088;28;20124;-89
2021/12/24 03:26:48;;;;;;;0.00;0.00;;;8.90;99.90;;;;;;5035831;28;20113;-84
2021/12/24 03:29:16;;;;;;;0.10;0.10;;;8.90;99.90;;;;;;5035602;28;20076;-83
2021/12/24 03:31:43;;;;;;;0.00;0.00;;;8.90;99.90;;;;;;5035894;28;20071;-90
2021/12/24 03:34:13;;;;;;;0.22;0.22;;;8.90;99.90;;;;;;5035796;28;20481;-84
2021/12/24 03:36:39;;;;;;;0.57;0.57;;;8.90;99.90;;;;;;5032374;28;20029;-89
2021/12/24 03:39:09;;;;;;;0.00;0.00;;;8.90;99.90;;;;;;5047672;28;20036;-84
2021/12/24 03:41:35;;;;;;;0.00;0.00;;;8.90;99.90;;;;;;5015944;28;20026;-84
2021/12/24 03:44:01;;;;;;;0.15;0.15;;;8.80;99.90;;;;;;5015963;28;20485;-84
2021/12/24 03:46:39;;;;;;;0.40;0.40;;;8.80;99.90;;;;;;5017651;28;20022;-91
2021/12/24 03:49:14;;;;;;;0.98;0.90;;;8.80;99.90;;;;;;5035072;28;20491;-90
2021/12/24 03:51:57;;;;;;;0.10;0.10;;;8.80;99.90;;;;;;5035390;28;20017;-90
2021/12/24 03:55:05;;;;;;;0.00;0.00;;;8.80;99.90;;;;;;5034941;28;20451;-90
2021/12/24 03:57:11;;;;;;;0.00;0.00;;;8.70;99.90;;;;;;5034759;28;20500;-90
2021/12/24 03:59:37;;;;;;;0.90;0.55;;;8.70;99.90;;;;;;5035299;28;20039;-89
2021/12/24 04:02:03;;;;;;;1.85;1.08;;;8.70;99.90;;;;;;5035259;28;20061;-90
2021/12/24 04:04:29;;;;;;;0.32;0.32;;;8.70;99.90;;;;;;5034848;28;20031;-84
2021/12/24 04:06:54;;;;;;;0.10;0.10;;;8.60;99.90;;;;;;5035131;28;20036;-84
2021/12/24 04:09:22;;;;;;;0.47;0.47;;;8.60;99.90;;;;;;5034745;28;20041;-84
2021/12/24 04:11:48;;;;;;;0.03;0.03;;;8.50;99.90;;;;;;5033549;28;20101;-89
2021/12/24 04:14:14;;;;;;;0.10;0.10;;;8.50;99.90;;;;;;5034404;28;20071;-90
2021/12/24 04:16:40;;;;;;;2.05;0.75;;;8.50;99.90;;;;;;5034953;28;20029;-88
2021/12/24 04:27:05;;;;;;;0.00;0.00;;;8.40;99.90;;;;;;5034748;28;20092;-89
2021/12/24 04:29:31;;;;;;;0.30;0.30;;;8.40;99.90;;;;;;5034662;28;20041;-84
2021/12/24 04:32:09;;;;;;;0.13;0.13;;;8.50;99.90;;;;;;5034981;28;20408;-84
2021/12/24 04:34:37;;;;;;;0.10;0.10;;;8.40;99.90;;;;;;5034292;28;20424;-84
2021/12/24 05:03:44;;;;;;;1.65;0.50;;;8.20;99.90;;;;;;5034368;28;20599;-89
2021/12/24 05:11:15;;;;;;;0.00;0.00;;;8.10;99.90;;;;;;5033968;28;20029;-83
2021/12/24 05:13:41;;;;;;;0.30;0.20;;;8.10;99.90;;;;;;5033618;28;20029;-83
2021/12/24 05:16:24;;;;;;;0.00;0.00;;;8.10;99.90;;;;;;5033771;28;20594;-89
2021/12/24 05:21:37;;;;;;;0.00;0.00;;;8.10;99.90;;;;;;5031913;28;20040;-89
2021/12/24 05:24:07;;;;;;;0.00;0.00;;;8.00;99.90;;;;;;5033560;28;20508;-83
2021/12/24 05:26:34;;;;;;;0.00;0.00;;;8.10;99.90;;;;;;5033342;28;20163;-89
2021/12/24 05:29:02;;;;;;;0.00;0.00;;;8.10;99.90;;;;;;5033631;28;20037;-89
2021/12/24 05:31:28;;;;;;;0.00;0.00;;;8.00;99.90;;;;;;5033738;28;20022;-89
2021/12/24 05:33:54;;;;;;;0.08;0.08;;;8.00;99.90;;;;;;5033576;28;20104;-84
2021/12/24 05:36:20;;;;;;;3.90;1.60;;;8.00;99.90;;;;;;5032884;28;20159;-83
2021/12/24 05:38:46;;;;;;;3.53;1.35;;;8.00;99.90;;;;;;5013696;28;20042;-89
2021/12/24 05:41:13;;;;;;;0.00;0.00;;;8.10;99.90;;;;;;5012338;28;20111;-89
2021/12/24 05:43:39;;;;;;;0.05;0.05;;;8.10;99.90;;;;;;5013898;28;20025;-89
2021/12/24 05:46:05;;;;;;;0.35;0.35;;;8.10;99.90;;;;;;5013612;28;20109;-89
2021/12/24 05:48:30;;;;;;;0.00;0.00;;;8.10;99.90;;;;;;5031580;28;20026;-83
2021/12/24 05:50:57;;;;;;;0.00;0.00;;;8.00;99.90;;;;;;5032832;28;20060;-88
2021/12/24 05:53:24;;;;;;;0.47;0.47;;;8.00;99.90;;;;;;5032979;28;20108;-89
2021/12/24 05:55:50;;;;;;;0.45;0.40;;;8.00;99.90;;;;;;5032904;28;20021;-89
2021/12/24 05:58:17;;;;;;;0.28;0.22;;;8.00;99.90;;;;;;5032684;28;20105;-83
2021/12/24 06:00:43;;;;;;;0.00;0.00;;;7.90;99.90;;;;;;5030827;28;20084;-88
2021/12/24 06:03:10;;;;;;;0.25;0.25;;;8.00;99.90;;;;;;5033096;28;20079;-83
2021/12/24 06:05:37;;;;;;;0.13;0.13;;;7.90;99.90;;;;;;5032638;28;20431;-89
2021/12/24 06:08:05;;;;;;;0.30;0.30;;;7.90;99.90;;;;;;5032846;28;20036;-89
2021/12/24 06:10:31;;;;;;;29.85;0.65;;;7.90;99.90;;;;;;5032613;28;20476;-89
2021/12/24 06:12:57;;;;;;;0.00;0.00;;;7.90;99.90;;;;;;5032998;28;20508;-89
2021/12/24 06:15:25;;;;;;;4.03;1.65;;;7.90;99.90;;;;;;5032501;28;20045;-83
2021/12/24 06:17:54;;;;;;;0.00;0.00;;;7.90;99.90;;;;;;5032609;28;20025;-87
2021/12/24 06:20:21;;;;;;;0.00;0.00;;;7.90;99.90;;;;;;5032484;28;20021;-83
2021/12/24 06:22:47;;;;;;;0.85;0.50;;;7.80;99.90;;;;;;5029779;28;20034;-89
2021/12/24 06:25:14;;;;;;;0.20;0.20;;;7.80;99.90;;;;;;5032481;28;20030;-88
2021/12/24 06:27:40;;;;;;;0.10;0.10;;;7.80;99.90;;;;;;5032581;28;20520;-89
2021/12/24 06:30:07;;;;;;;0.00;0.00;;;7.80;99.90;;;;;;5032230;28;20033;-82
2021/12/24 06:32:33;;;;;;;0.00;0.00;;;7.80;99.90;;;;;;5032673;28;20476;-89
2021/12/24 06:34:59;;;;;;;0.00;0.00;;;7.80;99.90;;;;;;5031008;28;20036;-88
2021/12/24 06:37:24;;;;;;;0.82;0.75;;;7.80;99.90;;;;;;5023073;28;20029;-89
2021/12/24 06:39:51;;;;;;;0.40;0.40;;;7.80;99.90;;;;;;5012718;28;20030;-83
2021/12/24 06:42:17;;;;;;;0.00;0.00;;;7.80;99.90;;;;;;5022474;28;20385;-83
2021/12/24 06:44:43;;;;;;;0.05;0.05;;;7.80;99.90;;;;;;5030062;28;20028;-88
2021/12/24 06:47:08;;;;;;;0.47;0.22;;;7.80;99.90;;;;;;5032192;28;20034;-89
2021/12/24 06:49:34;;;;;;;1.92;0.82;;;7.80;99.90;;;;;;5031732;28;20025;-89
2021/12/24 06:52:00;;;;;;;0.17;0.17;;;7.80;99.90;;;;;;5032283;28;20487;-84
2021/12/24 06:54:26;;;;;;;0.30;0.30;;;7.80;99.90;;;;;;5031811;28;20025;-83
2021/12/24 06:56:53;;;;;;;0.00;0.00;;;7.80;99.90;;;;;;5031976;28;20025;-86
2021/12/24 06:59:19;;;;;;;1.08;0.45;;;7.80;99.90;;;;;;5030822;28;20025;-89
2021/12/24 07:01:45;;;;;;;0.28;0.28;;;7.80;99.90;;;;;;5032217;28;20082;-89
2021/12/24 07:04:10;;;;;;;0.00;0.00;;;7.90;99.90;;;;;;5031745;28;20548;-88
2021/12/24 07:06:39;;;;;;;0.00;0.00;;;7.80;99.90;;;;;;5030650;28;20123;-83
2021/12/24 07:09:04;;;;;;;0.15;0.05;;;7.80;99.90;;;;;;5031803;28;20022;-82
2021/12/24 07:11:30;;;;;;;0.80;0.40;;;7.80;99.90;;;;;;5029174;28;20052;-89
2021/12/24 07:13:55;;;;;;;1.73;0.80;;;7.80;99.90;;;;;;5032064;28;20022;-88
2021/12/24 07:16:21;;;;;;;0.00;0.00;;;7.80;99.90;;;;;;5032169;28;20088;-88
2021/12/24 07:18:47;;;;;;;0.38;0.38;;;7.80;99.90;;;;;;5032117;28;20088;-88
2021/12/24 07:21:13;;;;;;;2.00;1.17;;;7.80;99.90;;;;;;5031401;28;20030;-83
2021/12/24 07:23:39;;;;;;;0.00;0.00;;;7.70;99.90;;;;;;5029303;28;20476;-89
2021/12/24 07:26:05;;;;;;;3.10;0.90;;;7.70;99.90;;;;;;5031634;28;20071;-88
2021/12/24 07:28:30;;;;;;;0.00;0.00;;;7.70;99.90;;;;;;5030639;28;20046;-89
2021/12/24 07:30:56;;;;;;;0.80;0.45;;;7.70;99.90;;;;;;5031862;28;20053;-88
2021/12/24 07:33:22;;;;;;;0.52;0.40;;;7.80;99.90;;;;;;5031892;28;20034;-83
2021/12/24 07:35:47;;;;;;;0.00;0.00;;;7.80;99.90;;;;;;5031611;28;20139;-88
2021/12/24 07:38:13;;;;;;;0.00;0.00;;;7.90;99.90;;;;;;5031733;28;20017;-88
2021/12/24 07:40:44;;;;;;;0.03;0.03;;;7.90;99.90;;;;;;5040828;28;20048;-86
2021/12/24 07:43:10;;;;;;;0.20;0.17;;;7.90;99.90;;;;;;5043361;28;20489;-88
2021/12/24 07:45:37;;;;;;;0.00;0.00;;;7.90;99.90;;;;;;5041668;28;20028;-83
2021/12/24 07:48:12;;;;;;;0.00;0.00;;;7.90;99.90;;;;;;5034015;28;20084;-83
2021/12/24 07:53:08;;;;;;;0.30;0.30;;;7.90;99.90;;;;;;5043486;28;20026;-88
2021/12/24 07:55:34;;;;;;;0.00;0.00;;;8.00;99.90;;;;;;5043663;28;20022;-88
2021/12/24 07:58:00;;;;;;;0.40;0.30;;;7.90;99.90;;;;;;5053063;28;20026;-83
2021/12/24 08:00:26;;;;;;;1.20;0.40;;;7.90;99.90;;;;;;5049253;28;20044;-82
2021/12/24 08:02:53;;;;;;;1.55;0.28;;;8.00;99.90;;;;;;5046875;28;20025;-88
2021/12/24 08:05:22;;;;;;;0.70;0.70;;;8.00;99.90;;;;;;5047246;28;20032;-82
2021/12/24 08:07:48;;;;;;;1.98;0.80;;;8.00;99.90;;;;;;5035419;28;20436;-89
2021/12/24 08:10:15;;;;;;;0.00;0.00;;;8.00;99.90;;;;;;5017891;28;20038;-88
2021/12/24 08:12:40;;;;;;;1.35;0.47;;;8.00;99.90;;;;;;5015477;28;20022;-82
2021/12/24 08:15:07;;;;;;;0.98;0.98;;;8.00;99.90;;;;;;5034128;28;20096;-88
2021/12/24 08:17:34;;;;;;;0.52;0.52;;;8.00;99.90;;;;;;5035065;28;20109;-88
2021/12/24 08:19:59;;;;;;;0.25;0.25;;;8.00;99.90;;;;;;5034576;28;20033;-88
2021/12/24 08:22:25;;;;;;;0.00;0.00;;;8.10;99.90;;;;;;5034558;28;20489;-89
2021/12/24 08:24:51;;;;;;;0.30;0.30;;;8.20;99.90;;;;;;5031652;28;20029;-82
2021/12/24 08:27:17;;;;;;;0.05;0.05;;;8.30;99.90;;;;;;5033837;28;20049;-83
2021/12/24 08:29:42;;;;;;;0.20;0.20;;;8.40;99.90;;;;;;5034287;28;20029;-88
2021/12/24 08:32:09;;;;;;;0.00;0.00;;;8.40;99.90;;;;;;5034468;28;20029;-87
2021/12/24 08:34:35;;;;;;;0.45;0.45;;;8.50;99.90;;;;;;5033603;28;20030;-88
2021/12/24 08:37:01;;;;;;;0.00;0.00;;;8.60;99.90;;;;;;5034415;28;20072;-83
2021/12/24 08:39:27;;;;;;;1.23;0.75;;;8.70;99.90;;;;;;5033946;28;20512;-82
2021/12/24 08:41:54;;;;;;;1.35;0.32;;;8.80;99.90;;;;;;5034478;28;20033;-88
2021/12/24 08:44:23;;;;;;;0.15;0.15;;;8.80;99.90;;;;;;5034483;28;20026;-88
2021/12/24 08:46:49;;;;;;;0.20;0.20;;;8.80;99.90;;;;;;5034106;28;20029;-87
2021/12/24 08:49:15;;;;;;;0.13;0.13;;;8.80;99.90;;;;;;5032445;28;20033;-88
2021/12/24 08:51:41;;;;;;;0.10;0.10;;;8.90;99.90;;;;;;5033258;28;20033;-83
2021/12/24 08:54:07;;;;;;;0.25;0.25;;;8.90;99.90;;;;;;5033676;28;20038;-83
2021/12/24 08:56:32;;;;;;;0.17;0.17;;;8.90;99.90;;;;;;5033728;28;20016;-87
2021/12/24 08:58:58;;;;;;;1.73;0.17;;;9.00;99.90;;;;;;5033762;28;20484;-87
2021/12/24 09:01:23;;;;;;;0.20;0.20;;;9.10;99.90;;;;;;5034090;28;20029;-88
2021/12/24 09:03:49;;;;;;;0.55;0.55;;;9.20;99.90;;;;;;5033605;28;20072;-83
2021/12/24 09:06:15;;;;;;;0.00;0.00;;;9.30;99.90;;;;;;5033735;28;20084;-82
2021/12/24 09:08:43;;;;;;;3.60;0.32;;;9.40;99.90;;;;;;5033547;28;20522;-86
2021/12/24 09:11:08;;;;;;;1.42;1.33;;;9.60;99.90;;;;;;5033812;28;20013;-87
2021/12/24 09:13:34;;;;;;;0.00;0.00;;;9.70;99.90;;;;;;5033987;28;20104;-83
2021/12/24 09:16:00;;;;;;;0.47;0.30;;;9.90;99.90;;;;;;5033915;28;20032;-83
2021/12/24 09:18:26;;;;;;;0.65;0.32;;;10.00;99.90;;;;;;5033147;28;20033;-83
2021/12/24 09:20:54;;;;;;;0.10;0.10;;;10.00;99.90;;;;;;5032561;28;20036;-86
2021/12/24 09:23:20;;;;;;;0.15;0.15;;;10.00;99.90;;;;;;5033549;28;20508;-83
2021/12/24 09:25:45;;;;;;;0.45;0.30;;;10.00;99.90;;;;;;5032130;28;20029;-87
2021/12/24 09:28:12;;;;;;;0.00;0.00;;;10.00;99.90;;;;;;5033355;28;20041;-87
2021/12/24 09:30:38;;;;;;;0.00;0.00;;;10.10;99.90;;;;;;5032480;28;20033;-83
2021/12/24 09:33:04;;;;;;;0.52;0.52;;;10.20;99.90;;;;;;5033389;28;20064;-87
2021/12/24 09:35:32;;;;;;;0.00;0.00;;;10.20;99.90;;;;;;5033248;28;20105;-87
2021/12/24 09:37:58;;;;;;;1.55;0.38;;;10.30;99.90;;;;;;5028341;28;20030;-85
2021/12/24 09:40:24;;;;;;;0.00;0.00;;;10.30;99.90;;;;;;5013265;28;20034;-87
2021/12/24 09:42:50;;;;;;;0.00;0.00;;;10.40;99.90;;;;;;5029011;28;20029;-83
2021/12/24 09:45:16;;;;;;;0.55;0.55;;;10.50;99.90;;;;;;5033335;28;20036;-81
2021/12/24 09:47:42;;;;;;;0.60;0.52;;;10.50;99.90;;;;;;5031728;28;20029;-87
2021/12/24 09:50:12;;;;;;;0.30;0.17;;;10.60;99.90;;;;;;5032429;28;20029;-86
2021/12/24 09:52:44;;;;;;;0.52;0.38;;;10.60;99.90;;;;;;5032835;28;20453;-86
2021/12/24 09:55:13;;;;;;;0.20;0.20;;;10.60;99.90;;;;;;5032888;28;20484;-83
2021/12/24 09:57:39;;;;;;;0.00;0.00;;;10.70;99.90;;;;;;5032800;28;20021;-82
2021/12/24 10:00:07;;;;;;;0.17;0.10;;;10.80;99.90;;;;;;5032979;28;20034;-86
2021/12/24 10:02:44;;;;;;;0.00;0.00;;;10.90;99.90;;;;;;5032999;28;20096;-87
2021/12/24 10:05:54;;;;;;;0.00;0.00;;;10.90;99.90;;;;;;5031367;28;20036;-86
2021/12/24 10:08:21;;;;;;;0.00;0.00;;;11.10;99.90;;;;;;5027706;28;20160;-82
2021/12/24 10:10:51;;;;;;;0.60;0.22;;;11.10;99.90;;;;;;5031006;28;20385;-83
2021/12/24 10:13:36;;;;;;;1.25;0.20;;;11.20;99.90;;;;;;5031510;28;20519;-86
2021/12/24 10:16:09;;;;;;;0.00;0.00;;;11.20;99.90;;;;;;5031179;28;20488;-86
2021/12/24 10:18:42;;;;;;;0.10;0.10;;;11.20;99.90;;;;;;5032575;28;20025;-82
2021/12/24 10:21:23;;;;;;;0.00;0.00;;;11.20;99.90;;;;;;5032020;28;20040;-83
2021/12/24 10:23:56;;;;;;;0.10;0.10;;;11.30;99.90;;;;;;5031290;28;20026;-82
2021/12/24 10:26:26;;;;;;;0.10;0.00;;;11.40;99.90;;;;;;5030731;28;20495;-86
2021/12/24 10:28:53;;;;;;;0.10;0.10;;;11.40;99.90;;;;;;5032073;28;20044;-85
2021/12/24 10:31:23;;;;;;;0.03;0.03;;;11.40;99.90;;;;;;5032480;28;20049;-85
2021/12/24 10:34:15;;;;;;;0.00;0.00;;;11.50;99.90;;;;;;5032395;28;20401;-85
2021/12/24 10:36:54;;;;;;;0.10;0.10;;;11.60;99.90;;;;;;5028881;28;20109;-82
2021/12/24 10:39:22;;;;;;;0.45;0.30;;;11.70;99.90;;;;;;5032067;28;20040;-85
2021/12/24 10:41:51;;;;;;;0.20;0.10;;;11.80;99.90;;;;;;5032251;28;20115;-85
2021/12/24 10:44:18;;;;;;;0.88;0.05;;;11.90;99.90;;;;;;5031166;28;20091;-85
2021/12/24 10:47:02;;;;;;;0.00;0.00;;;11.90;99.90;;;;;;5032188;28;20025;-84
2021/12/24 10:55:04;;;;;;;;;;;12.20;99.90;;;;;;5032769;28;20159;-82
2021/12/24 10:57:32;;;;;;;0.20;0.15;;;12.30;99.90;;;;;;5032147;28;19905;-84
2021/12/24 11:00:05;;;;;;;0.00;0.00;;;12.30;99.90;;;;;;5032476;28;20053;-82
2021/12/24 11:02:35;;;;;;;2.25;0.35;;;12.20;99.90;;;;;;5031741;28;20034;-82
2021/12/24 11:05:03;;;;;;;0.00;0.00;;;12.20;99.90;;;;;;5031821;28;20025;-84
2021/12/24 11:07:40;;;;;;;0.00;0.00;;;12.30;99.90;;;;;;5032282;28;20396;-81
2021/12/24 11:10:23;;;;;;;0.45;0.45;;;12.30;99.90;;;;;;5031511;28;20026;-84
2021/12/24 11:12:50;;;;;;;0.25;0.25;;;12.30;99.90;;;;;;5032108;28;20045;-82
2021/12/24 11:15:32;;;;;;;0.38;0.38;;;12.20;99.90;;;;;;5032321;28;20432;-80
2021/12/24 11:18:04;;;;;;;0.00;0.00;;;12.10;99.90;;;;;;5031911;28;20091;-81
2021/12/24 11:20:32;;;;;;;0.10;0.10;;;12.20;99.90;;;;;;5031902;28;20026;-84
2021/12/24 11:23:13;;;;;;;0.30;0.30;;;12.30;99.90;;;;;;5034229;28;20025;-83
2021/12/24 11:25:47;;;;;;;0.10;0.10;;;12.40;99.90;;;;;;5034969;28;20027;-85
2021/12/24 11:28:15;;;;;;;0.15;0.15;;;12.40;99.90;;;;;;5035661;28;20049;-82
2021/12/24 11:30:45;;;;;;;2.35;0.45;;;12.30;99.90;;;;;;5035794;28;20026;-84
2021/12/24 11:33:19;;;;;;;3.42;0.30;;;12.30;99.90;;;;;;5034386;28;20022;-84
2021/12/24 11:35:47;;;;;;;0.20;0.20;;;12.30;99.90;;;;;;5015850;28;20018;-84
2021/12/24 11:38:24;;;;;;;0.05;0.05;;;12.40;99.90;;;;;;5014794;28;20022;-81
2021/12/24 11:40:54;;;;;;;0.28;0.28;;;12.50;99.90;;;;;;5032509;28;20422;-81
2021/12/24 11:43:21;;;;;;;3.03;1.33;;;12.70;99.90;;;;;;5034395;28;20025;-84
2021/12/24 11:45:49;;;;;;;0.00;0.00;;;12.70;99.90;;;;;;5035815;28;20092;-81
2021/12/24 11:48:14;;;;;;;0.30;0.30;;;12.80;99.90;;;;;;5035114;28;20028;-84
2021/12/24 11:50:40;;;;;;;0.43;0.43;;;12.90;99.90;;;;;;5035096;28;20401;-80
2021/12/24 11:53:09;;;;;;;0.22;0.22;;;12.70;99.90;;;;;;5034420;28;20036;-81
2021/12/24 11:55:48;;;;;;;14.10;0.82;;;12.50;99.90;;;;;;5035305;28;20017;-81
2021/12/24 11:58:18;;;;;;;1.55;0.75;;;12.40;99.90;;;;;;5035348;28;20018;-84
2021/12/24 12:00:46;;;;;;;0.50;0.50;;;12.40;99.90;;;;;;5035425;28;20022;-84
2021/12/24 12:03:40;;;;;;;0.05;0.05;;;12.40;99.90;;;;;;5035064;28;20113;-84
2021/12/24 12:06:29;;;;;;;0.77;0.10;;;12.50;99.90;;;;;;5035082;28;20566;-81
2021/12/24 12:09:00;;;;;;;0.47;0.47;;;12.50;99.90;;;;;;5034818;28;20032;-81
2021/12/24 12:11:32;;;;;;;0.30;0.30;;;12.50;99.90;;;;;;5035016;28;20028;-84
2021/12/24 12:14:10;;;;;;;0.00;0.00;;;12.60;99.90;;;;;;5035145;28;20028;-84
2021/12/24 12:16:39;;;;;;;1.08;0.65;;;12.50;99.90;;;;;;5034882;28;20025;-84
2021/12/24 12:19:21;;;;;;;0.38;0.38;;;12.50;99.90;;;;;;5034732;28;20037;-81
2021/12/24 12:22:13;;;;;;;0.13;0.13;;;12.50;99.90;;;;;;5034949;28;20029;-81
2021/12/24 12:24:59;;;;;;;0.00;0.00;;;12.50;99.90;;;;;;5033510;28;20507;-84
2021/12/24 12:27:52;;;;;;;0.70;0.70;;;12.50;99.90;;;;;;5032948;28;20038;-84
2021/12/24 12:30:39;;;;;;;0.30;0.30;;;12.60;99.90;;;;;;5034620;28;20373;-84
2021/12/24 12:33:10;;;;;;;0.57;0.52;;;12.70;99.90;;;;;;5034083;28;20032;-80
2021/12/24 12:35:56;;;;;;;0.08;0.08;;;12.60;99.90;;;;;;5034248;28;20072;-84
2021/12/24 12:38:23;;;;;;;0.10;0.10;;;12.60;99.90;;;;;;5033326;28;20072;-84
2021/12/24 12:40:48;;;;;;;1.55;1.45;;;12.70;99.90;;;;;;5017854;28;20021;-85
2021/12/24 12:43:14;;;;;;;0.52;0.20;;;12.70;99.90;;;;;;5030094;28;20025;-80
2021/12/24 12:45:41;;;;;;;0.40;0.40;;;12.70;99.90;;;;;;5014778;28;20045;-80
2021/12/24 12:48:13;;;;;;;0.20;0.20;;;12.70;99.90;;;;;;5029610;28;20025;-84
2021/12/24 12:50:49;;;;;;;0.08;0.08;;;12.60;99.90;;;;;;5033753;28;20484;-84
2021/12/24 12:53:36;;;;;;;0.05;0.05;;;12.70;99.90;;;;;;5034148;28;20021;-84
2021/12/24 12:56:22;;;;;;;0.60;0.60;;;12.70;99.90;;;;;;5034002;28;20075;-84
2021/12/24 12:58:50;;;;;;;1.75;0.43;;;12.70;99.90;;;;;;5032962;28;20025;-81
2021/12/24 13:01:20;;;;;;;0.30;0.30;;;12.70;99.90;;;;;;5033355;28;20029;-84
2021/12/24 13:03:58;;;;;;;0.65;0.65;;;12.80;99.90;;;;;;5034213;28;20087;-84
2021/12/24 13:06:29;;;;;;;0.10;0.10;;;12.80;99.90;;;;;;5033851;28;20082;-84
2021/12/24 13:09:01;;;;;;;0.30;0.30;;;12.90;99.90;;;;;;5033581;28;20057;-84
2021/12/24 13:11:33;;;;;;;0.30;0.30;;;13.00;99.90;;;;;;5031191;28;20088;-80
2021/12/24 13:14:01;;;;;;;0.43;0.40;;;13.00;99.90;;;;;;5034161;28;20425;-84
2021/12/24 13:16:34;;;;;;;1.48;1.35;;;13.10;99.90;;;;;;5033950;28;20121;-84
2021/12/24 13:24:59;;;;;;;0.10;0.10;;;13.10;99.90;;;;;;5033581;28;20479;-80
2021/12/24 13:27:27;;;;;;;0.25;0.25;;;13.10;99.90;;;;;;5030696;28;20393;-84
2021/12/24 13:30:13;;;;;;;1.45;1.35;;;13.10;99.90;;;;;;5033525;28;20033;-80
2021/12/24 13:32:43;;;;;;;0.00;0.00;;;13.00;99.90;;;;;;5033558;28;20014;-84
2021/12/24 13:35:10;;;;;;;8.73;2.03;;;13.10;99.90;;;;;;5033314;28;20057;-84
2021/12/24 13:37:35;;;;;;;0.00;0.00;;;13.10;99.90;;;;;;5033343;28;20025;-80
2021/12/24 13:40:06;;;;;;;0.30;0.30;;;13.10;99.90;;;;;;5023204;28;20033;-84
2021/12/24 13:42:41;;;;;;;0.05;0.05;;;13.10;99.90;;;;;;5013752;28;20056;-81
2021/12/24 13:45:07;;;;;;;0.45;0.45;;;13.10;99.90;;;;;;5012760;28;20030;-84
2021/12/24 13:47:58;;;;;;;24.65;0.65;;;13.10;99.90;;;;;;5023774;28;20033;-84
2021/12/24 13:55:35;;;;;;;0.38;0.38;;;13.10;99.90;;;;;;5033492;28;20036;-84
2021/12/24 13:58:08;;;;;;;0.10;0.10;;;13.10;99.90;;;;;;5032853;28;20025;-84
2021/12/24 14:00:36;;;;;;;4.22;0.98;;;13.00;99.90;;;;;;5033062;28;20033;-84
2021/12/24 14:03:09;;;;;;;1.33;1.23;;;13.00;99.90;;;;;;5032997;28;20029;-80
2021/12/24 14:05:51;;;;;;;0.10;0.10;;;13.00;99.90;;;;;;5032879;28;20079;-80
2021/12/24 14:08:24;;;;;;;0.65;0.50;;;13.00;99.90;;;;;;5031637;28;20037;-80
2021/12/24 14:11:02;;;;;;;15.50;1.33;;;13.00;99.90;;;;;;5031368;28;20540;-84
2021/12/24 14:13:32;;;;;;;0.10;0.10;;;12.90;99.90;;;;;;5033019;28;20021;-84
2021/12/24 14:24:12;;;;;;;0.00;0.00;;;12.80;99.90;;;;;;5033106;28;20038;-84
2021/12/24 14:26:51;;;;;;;0.10;0.10;;;12.70;99.90;;;;;;5032273;28;20223;-84
2021/12/24 14:29:24;;;;;;;0.00;0.00;;;12.70;99.90;;;;;;5030905;28;20116;-80
2021/12/24 14:31:56;;;;;;;0.08;0.08;;;12.60;99.90;;;;;;5032751;28;20078;-80
2021/12/24 14:34:52;;;;;;;0.45;0.45;;;12.50;99.90;;;;;;5031033;28;20135;-84
2021/12/24 14:37:20;;;;;;;1.27;1.17;;;12.50;99.90;;;;;;5027805;28;20549;-85
2021/12/24 14:39:50;;;;;;;0.15;0.15;;;12.40;99.90;;;;;;5024326;28;20030;-85
2021/12/24 14:42:22;;;;;;;0.43;0.43;;;12.40;99.90;;;;;;5012775;28;20014;-80
2021/12/24 14:44:50;;;;;;;1.67;1.58;;;12.40;99.90;;;;;;5012723;28;20030;-85
2021/12/24 14:47:25;;;;;;;9.10;2.28;;;12.40;99.90;;;;;;5019398;28;20022;-85
2021/12/24 14:49:59;;;;;;;0.20;0.20;;;12.30;99.90;;;;;;5031744;28;20033;-84
2021/12/24 14:52:26;;;;;;;0.00;0.00;;;12.30;99.90;;;;;;5031172;28;20021;-84
2021/12/24 14:55:12;;;;;;;0.10;0.10;;;12.20;99.90;;;;;;5032234;28;20108;-80
2021/12/24 14:58:05;;;;;;;7.10;2.70;;;12.20;99.90;;;;;;5034113;28;20049;-80
2021/12/24 15:00:34;;;;;;;1.15;1.00;;;12.20;99.90;;;;;;5035472;28;20124;-80
2021/12/24 15:03:06;;;;;;;1.83;1.08;;;12.20;99.90;;;;;;5036326;28;20033;-83
2021/12/24 15:05:39;;;;;;;2.13;0.20;;;12.10;99.90;;;;;;5036320;28;20035;-84
2021/12/24 15:08:13;;;;;;;;;;;12.00;99.90;;;;;;5036743;28;20033;-80
2021/12/24 15:10:39;;;;;;;0.08;0.08;;;12.00;99.90;;;;;;5035836;28;19956;-80